Tiempo atmosférico en la estación meteorológica de Alcoy/Alcoi, Alacant/Alicante (600 m.)



Fecha
DESCASC
Temp. máxima en grados centígrados (hora)
DESCASC
Temp. mínima en grados centígrados (hora)
DESCASC
Temp. media en grados centígrados
DESCASC
Racha de viento máxima en m/sg (hora)
DESCASC
Velocidad máxima media en intervalos de 10 minutos(hora)
DESCASC
Precipitaciones diarias en mm
DESCASC
Precipitaciones de 00:00 a 06:00 en mm
DESCASC
Precipitaciones de 06:00 a 12:00 en mm
DESCASC
Precipitaciones de 12:00 a 18:00 en mm
DESCASC
Precipitaciones de 18:00 a 24:00 en mm
DESCASC
06-12-2018 20.5 (13:30) 10.3 (23:50) 15.4 6.67 (04:00) 5.28 (04:00) 0 0 0 0 0
05-12-2018 25.1 (16:10) 11.3 (06:30) 18.2 6.39 (22:50) 5 (22:40) 0 0 0 0 0
04-12-2018 21.2 (15:40) 10.2 (08:00) 15.7 5.56 (20:50) 4.17 (22:40) 0 0 0 0 0
03-12-2018 24 (14:40) 11.9 (00:00) 17.9 8.89 (08:20) 6.39 (08:20) 0 0 0 0 0
02-12-2018 20.5 (15:20) 10.1 (00:00) 15.3 10.56 (06:40) 8.33 (06:40) 0 0 0 0 0
01-12-2018 17 (15:50) 5.2 (00:00) 11.1 9.44 (21:50) 5 (21:50) 0 0 0 0 0
30-11-2018 15.3 (15:10) 6.2 (00:00) 10.8 10 (09:40) 5 (09:40) 0 0 0 0 0
29-11-2018 20.8 (16:20) 4.7 (00:00) 12.7 6.67 (22:20) 4.72 (21:10) 0 0 0 0 0
28-11-2018 20.2 (15:50) 6.6 (00:00) 13.4 7.5 (11:40) 4.72 (18:30) 0 0 0 0 0
27-11-2018 18.1 (14:50) 7.6 (00:00) 12.9 8.33 (01:20) 5 (23:50) 0 0 0 0 0
26-11-2018 14.5 (03:00) 8.5 (23:10) 11.5 20.56 (10:20) 8.89 (10:50) 0 0 0 0 0
25-11-2018 17.4 (15:20) 7.4 (00:00) 12.4 11.67 (12:00) 6.11 (12:00) 0 0 0 0 0
24-11-2018 13.9 (14:20) 4.3 (00:00) 9.1 6.11 (07:00) 4.44 (07:00) 0 0 0 0 0
23-11-2018 14.4 (14:30) 7.2 (00:00) 10.8 7.22 (15:00) 3.33 (13:40) 0.4 0 0.4 0 0
22-11-2018 13.2 (15:40) 9.3 (00:00) 11.3 4.44 (01:20) 3.06 (05:40) 0.6 0 0.2 0.4 0
21-11-2018 16.6 (16:00) 9.1 (00:00) 12.9 9.72 (00:30) 6.11 (00:30) 0 0 0 0 0
20-11-2018 15.9 (12:20) 10 (00:00) 12.9 11.39 (18:50) 5.28 (13:20) 0.8 0 0 0.4 0.4
19-11-2018 11.5 (12:40) 9.7 (00:00) 10.6 11.67 (09:50) 5 (10:30) 46.6 4.2 16.2 25.2 1
18-11-2018 14.2 (12:50) 9 (00:00) 11.6 7.22 (15:10) 3.89 (15:10) 0 0 0 0 0
17-11-2018 14 (13:20) 10.9 (00:00) 12.4 5.28 (14:20) 2.78 (14:20) 16.2 3.6 11.8 0.8 0
16-11-2018 15.5 (11:10) 11.9 (00:00) 13.7 7.5 (16:10) 3.61 (16:10) 1 0 0 0.4 0.6
15-11-2018 15.4 (14:00) 12.4 (00:00) 13.9 5.28 (16:40) 2.78 (14:20) 17.2 0 17.2 0 0
14-11-2018 16.2 (13:10) 12.7 (00:00) 14.5 7.22 (14:30) 4.17 (14:50) 0 0 0 0 0
13-11-2018 16.5 (14:20) 11.4 (00:00) 13.9 6.39 (14:30) 3.61 (17:00) 0 0 0 0 0
12-11-2018 17.4 (02:00) 8.9 (00:00) 13.1 7.78 (02:10) 3.61 (01:50) 0 0 0 0 0
11-11-2018 21.8 (14:10) 11.9 (00:00) 16.8 8.06 (13:20) 3.89 (13:20) 0 0 0 0 0
10-11-2018 17.3 (12:30) 10.8 (00:00) 14 11.11 (03:00) 5.83 (13:00) 0 0 0 0 0

Gráficas

Temp. máximas Temp. mínimas Temp. medias Precipitaciones Rachas de viento máximas Velocidades máximas media en intervalos de 10 minutos

Datos horarios

Fecha y hora oficial Temperatura (ºC) Velocidad del viento (km/h) Dirección del viento Racha (km/h) Dirección de racha Precipitación (mm) Presión (hPa) Tendencia (hPa) Humedad (%)
2018-12-09 23:00:00 12 9 Sudoeste 19 Sudoeste 0 -- -- 56
2018-12-09 22:00:00 12.6 9 Oeste 17 Sudoeste 0 -- -- 55
2018-12-09 21:00:00 13.7 8 Sudoeste 16 Sur 0 -- -- 53
2018-12-09 20:00:00 14.1 6 Sudoeste 21 Sudoeste 0 -- -- 53
2018-12-09 19:00:00 16.1 11 Oeste 17 Oeste 0 -- -- 47
2018-12-09 18:00:00 16.9 6 Oeste 9 Oeste 0 -- -- 48
2018-12-09 17:00:00 20 3 Sudoeste 9 Este 0 -- -- 39
2018-12-09 16:00:00 21 8 Este 15 Este 0 -- -- 39
2018-12-09 15:00:00 22.2 6 Nordeste 17 Este 0 -- -- 36
2018-12-09 14:00:00 21.5 7 Este 15 Este 0 -- -- 37
2018-12-09 13:00:00 20.5 10 Este 15 Este 0 -- -- 40
2018-12-09 12:00:00 20.7 2 Este 8 Este 0 -- -- 42
2018-12-09 11:00:00 17.1 3 Este 6 Nordeste 0 -- -- 51
2018-12-09 10:00:00 14.6 4 Este 17 Sudoeste 0 -- -- 51
2018-12-09 09:00:00 11 3 Oeste 23 Sudoeste 0 -- -- 58
2018-12-09 08:00:00 11 19 Sudoeste 26 Sudoeste 0 -- -- 55
2018-12-09 07:00:00 9.8 8 Sudoeste 18 Sudoeste 0 -- -- 58
2018-12-09 06:00:00 9.7 10 Sudoeste 16 Sudoeste 0 -- -- 57
2018-12-09 05:00:00 9.6 8 Sudoeste 14 Oeste 0 -- -- 58
2018-12-09 04:00:00 9.7 8 Sudoeste 14 Sudoeste 0 -- -- 60
2018-12-09 03:00:00 10 5 Sudoeste 19 Sur 0 -- -- 61
2018-12-09 02:00:00 9.5 6 Sudoeste 13 Sudoeste 0 -- -- 65
2018-12-09 01:00:00 9.6 5 Sudoeste 13 Sudoeste 0 -- -- 68
2018-12-09 00:00:00 9.8 7 Sudoeste 15 Sudoeste 0 -- -- 71
2018-12-08 23:00:00 9.9 6 Sudoeste 16 Sudoeste 0 -- -- 73
2018-12-08 22:00:00 10.3 9 Sudoeste 16 Sudoeste 0 -- -- 77
2018-12-08 21:00:00 10.7 9 Sudoeste 21 Sudoeste 0 -- -- 77
2018-12-08 20:00:00 11.1 6 Oeste 13 Sudoeste 0 -- -- 79
2018-12-08 19:00:00 11.4 4 Sudoeste 11 Oeste 0 -- -- 73
2018-12-08 18:00:00 11.6 2 Sudeste 7 Oeste 0 -- -- 71
2018-12-08 17:00:00 14.5 0 Calma 8 Nordeste 0 -- -- 57
2018-12-08 16:00:00 15.9 4 Nordeste 10 Este 0 -- -- 52
2018-12-08 15:00:00 16.2 5 Nordeste 13 Este 0 -- -- 52
2018-12-08 14:00:00 16 10 Este 17 Nordeste 0 -- -- 51
2018-12-08 13:00:00 17.5 0 Calma 11 Sudoeste 0 -- -- 43
2018-12-08 12:00:00 14.5 7 Este 13 Este 0 -- -- 53
2018-12-08 11:00:00 13.8 6 Este 10 Este 0 -- -- 60
2018-12-08 10:00:00 13.4 3 Sudeste 20 Sudoeste 0 -- -- 58
2018-12-08 09:00:00 10.7 12 Sudoeste 17 Sudoeste 0 -- -- 67
2018-12-08 08:00:00 9.1 9 Sudoeste 14 Oeste 0 -- -- 73
2018-12-08 07:00:00 10 4 Oeste 9 Sudoeste 0 -- -- 70
2018-12-08 06:00:00 11.4 6 Sudoeste 12 Oeste 0 -- -- 65
2018-12-08 05:00:00 13.2 8 Sudoeste 17 Oeste 0 -- -- 59
2018-12-08 04:00:00 13.4 3 Oeste 16 Sur 0 -- -- 58
2018-12-08 03:00:00 14.7 10 Sudoeste 18 Sur 0 -- -- 54
2018-12-08 02:00:00 15 6 Sudoeste 21 Sudoeste 0 -- -- 50
2018-12-08 01:00:00 15.7 10 Sudoeste 27 Oeste 0 -- -- 43
2018-12-08 00:00:00 15.4 7 Sur 23 Oeste 0 -- -- 42
2018-12-07 23:00:00 15.4 5 Sudoeste 22 Sudoeste 0 -- -- 41
2018-12-07 22:00:00 15.7 11 Sudoeste 27 Oeste 0 -- -- 37
2018-12-07 21:00:00 16.1 12 Sudoeste 28 Oeste 0 -- -- 35
2018-12-07 20:00:00 16.4 7 Sudoeste 20 Oeste 0 -- -- 35
2018-12-07 19:00:00 16 7 Sudoeste 20 Oeste 0 -- -- 37
2018-12-07 18:00:00 17.1 10 Sudoeste 15 Sudoeste 0 -- -- 34
2018-12-07 17:00:00 18.6 7 Oeste 20 Oeste 0 -- -- 32
2018-12-07 16:00:00 20.4 6 Sur 16 Sur 0 -- -- 34
2018-12-07 15:00:00 19.4 9 Sudoeste 25 Oeste 0 -- -- 39
2018-12-07 14:00:00 18.9 4 Este 14 Este 0 -- -- 47
2018-12-07 13:00:00 17.2 6 Este 12 Este 0 -- -- 53
2018-12-07 12:00:00 15.4 5 Este 10 Este 0 -- -- 61
2018-12-07 11:00:00 13.3 4 Este 9 Nordeste 0 -- -- 67
2018-12-07 10:00:00 11.5 5 Sudoeste 15 Sudoeste 0 -- -- 69
2018-12-07 09:00:00 7.7 6 Sudoeste 16 Oeste 0 -- -- 82
2018-12-07 08:00:00 6.9 8 Sudoeste 17 Sudoeste 0 -- -- 84
2018-12-07 07:00:00 7.3 9 Sudoeste 15 Sudoeste 0 -- -- 84
2018-12-07 06:00:00 7.7 10 Sudoeste 15 Oeste 0 -- -- 82
2018-12-07 05:00:00 7.9 10 Sudoeste 17 Oeste 0 -- -- 81
2018-12-07 04:00:00 8.2 8 Sudoeste 15 Sudoeste 0 -- -- 81
2018-12-07 03:00:00 8.7 6 Sudoeste 13 Sudoeste 0 -- -- 79
2018-12-07 02:00:00 9.2 7 Oeste 18 Sudoeste 0 -- -- 77
2018-12-07 01:00:00 10 10 Sudoeste 16 Sudoeste 0 -- -- 74
2018-12-07 00:00:00 10.3 9 Sudoeste 19 Sudoeste 0 -- -- 73
2018-12-06 23:00:00 10.9 10 Sudoeste 19 Sudoeste 0 -- -- 71
2018-12-06 22:00:00 10.8 3 Oeste 17 Sudoeste 0 -- -- 71
2018-12-06 21:00:00 11.7 7 Sudoeste 18 Sudoeste 0 -- -- 70
2018-12-06 20:00:00 12.2 10 Sudoeste 17 Sudoeste 0 -- -- 67
2018-12-06 19:00:00 13.7 8 Sudoeste 13 Sudoeste 0 -- -- 62
2018-12-06 18:00:00 14.5 3 Oeste 6 Nordeste 0 -- -- 61
2018-12-06 17:00:00 17.6 4 Nordeste 15 Este 0 -- -- 50
2018-12-06 16:00:00 19.2 9 Este 17 Este 0 -- -- 44
2018-12-06 15:00:00 20.3 6 Nordeste 17 Este 0 -- -- 40
2018-12-06 14:00:00 20.5 8 Este 14 Este 0 -- -- 38
2018-12-06 13:00:00 20.2 6 Este 13 Este 0 -- -- 36
2018-12-06 12:00:00 18.4 7 Este 11 Este 0 -- -- 43
2018-12-06 11:00:00 18.4 2 Este 10 Sudoeste 0 -- -- 42
2018-12-06 10:00:00 16.1 5 Sudoeste 19 Sudoeste 0 -- -- 43
2018-12-06 09:00:00 13.4 9 Sudoeste 20 Sudoeste 0 -- -- 52
2018-12-06 08:00:00 12.1 9 Sudoeste 20 Sudoeste 0 -- -- 58
2018-12-06 07:00:00 12.4 9 Sudoeste 18 Sur 0 -- -- 58
2018-12-06 06:00:00 13.4 6 Sur 19 Sudoeste 0 -- -- 53
2018-12-06 05:00:00 13.3 7 Sudoeste 24 Sudoeste 0 -- -- 52
2018-12-06 04:00:00 15.9 19 Sudoeste 24 Sudoeste 0 -- -- 43
2018-12-06 03:00:00 14.1 14 Sudoeste 22 Sudoeste 0 -- -- 47
2018-12-06 02:00:00 14.4 12 Sudoeste 18 Oeste 0 -- -- 45
2018-12-06 01:00:00 14.3 12 Sudoeste 19 Sudoeste 0 -- -- 47
2018-12-06 00:00:00 14.7 9 Sudoeste 17 Sudoeste 0 -- -- 47
2018-12-05 23:00:00 13.7 15 Sudoeste 23 Sudoeste 0 -- -- 53
2018-12-05 22:00:00 14.5 15 Sudoeste 22 Sudoeste 0 -- -- 52
2018-12-05 21:00:00 14.9 18 Sudoeste 22 Sudoeste 0 -- -- 52
2018-12-05 20:00:00 16.4 15 Sudoeste 22 Sudoeste 0 -- -- 49
2018-12-05 19:00:00 18.2 10 Sudoeste 14 Sudoeste 0 -- -- 44
2018-12-05 18:00:00 19.2 7 Sudoeste 12 Sudoeste 0 -- -- 41
2018-12-05 17:00:00 22.6 5 Oeste 14 Sudoeste 0 -- -- 33
2018-12-05 16:00:00 24.3 0 Calma 8 Este 0 -- -- 34
2018-12-05 15:00:00 23.8 4 Este 9 Este 0 -- -- 39
2018-12-05 14:00:00 23.7 3 Este 8 Nordeste 0 -- -- 33
2018-12-05 13:00:00 20.9 6 Este 8 Este 0 -- -- 48
2018-12-05 12:00:00 21.1 2 Este 7 Nordeste 0 -- -- 44
2018-12-05 11:00:00 20.8 0 Calma 8 Sudoeste 0 -- -- 42
2018-12-05 10:00:00 15.8 4 Sudoeste 13 Sudoeste 0 -- -- 49
2018-12-05 09:00:00 12.2 5 Sudoeste 17 Sudoeste 0 -- -- 57
2018-12-05 08:00:00 11.7 12 Oeste 18 Oeste 0 -- -- 58
2018-12-05 07:00:00 11.8 13 Sudoeste 20 Oeste 0 -- -- 58
2018-12-05 06:00:00 11.8 13 Sudoeste 19 Sudoeste 0 -- -- 59
2018-12-05 05:00:00 12.4 12 Sudoeste 20 Sudoeste 0 -- -- 57
2018-12-05 04:00:00 11.9 15 Sudoeste 20 Sudoeste 0 -- -- 59
2018-12-05 03:00:00 11.7 13 Sudoeste 21 Sudoeste 0 -- -- 60
2018-12-05 02:00:00 12.1 14 Sudoeste 20 Sudoeste 0 -- -- 59
2018-12-05 01:00:00 11.9 13 Sudoeste 19 Sudoeste 0 -- -- 62
2018-12-05 00:00:00 11.8 12 Sudoeste 18 Sudoeste 0 -- -- 64
2018-12-04 23:00:00 12 12 Sudoeste 20 Sudoeste 0 -- -- 65
2018-12-04 22:00:00 12.7 12 Sudoeste 18 Sudoeste 0 -- -- 64
2018-12-04 21:00:00 13.8 13 Sudoeste 20 Sudoeste 0 -- -- 60
2018-12-04 20:00:00 14.8 10 Sudoeste 16 Sudoeste 0 -- -- 56
2018-12-04 19:00:00 15.5 11 Sudoeste 14 Sudoeste 0 -- -- 56
2018-12-04 18:00:00 16.7 8 Sudoeste 12 Sudoeste 0 -- -- 57
2018-12-04 17:00:00 19.3 0 Calma 9 Este 0 -- -- 51
2018-12-04 16:00:00 21 5 Este 12 Este 0 -- -- 46
2018-12-04 15:00:00 21.1 7 Este 13 Este 0 -- -- 45
2018-12-04 14:00:00 20.9 6 Este 13 Este 0 -- -- 45
2018-12-04 13:00:00 20.3 6 Este 11 Este 0 -- -- 45
2018-12-04 12:00:00 18.7 5 Nordeste 9 Nordeste 0 -- -- 49
2018-12-04 11:00:00 17.2 4 Este 13 Sudoeste 0 -- -- 54
2018-12-04 10:00:00 14.7 9 Sudoeste 16 Sudoeste 0 -- -- 59
2018-12-04 09:00:00 11.3 12 Sudoeste 18 Sudoeste 0 -- -- 67
2018-12-04 08:00:00 10.2 10 Sudoeste 17 Sudoeste 0 -- -- 70
2018-12-04 07:00:00 10.3 11 Sudoeste 17 Sudoeste 0 -- -- 68
2018-12-04 06:00:00 10.9 13 Sudoeste 18 Sudoeste 0 -- -- 64
2018-12-04 05:00:00 10.7 10 Sudoeste 18 Sudoeste 0 -- -- 61
2018-12-04 04:00:00 11.6 13 Sudoeste 18 Sudoeste 0 -- -- 57
2018-12-04 03:00:00 11.8 12 Oeste 20 Sudoeste 0 -- -- 53
2018-12-04 02:00:00 11.5 13 Sudoeste 18 Sudoeste 0 -- -- 51
2018-12-04 01:00:00 12.2 8 Oeste 13 Sudoeste 0 -- -- 46
2018-12-04 00:00:00 13.1 4 Sudoeste 14 Sudoeste 0 -- -- 41
2018-12-03 23:00:00 14.3 6 Sudoeste 22 Sudoeste 0 -- -- 39
2018-12-03 22:00:00 16.2 12 Sudoeste 19 Sudoeste 0 -- -- 33
2018-12-03 21:00:00 15 7 Sur 22 Sudoeste 0 -- -- 33
2018-12-03 20:00:00 17.1 10 Sudoeste 15 Sudoeste 0 -- -- 27
2018-12-03 19:00:00 17 10 Sudoeste 17 Sur 0 -- -- 31
2018-12-03 18:00:00 18.1 6 Sudoeste 15 Sudoeste 0 -- -- 31
2018-12-03 17:00:00 20.7 3 Noroeste 19 Oeste 0 -- -- 25
2018-12-03 16:00:00 22.9 10 Oeste 20 Oeste 0 -- -- 23
2018-12-03 15:00:00 23.4 9 Oeste 21 Oeste 0 -- -- 24
2018-12-03 14:00:00 22.8 6 Sur 14 Sudoeste 0 -- -- 24
2018-12-03 13:00:00 22.2 9 Sudoeste 19 Sudoeste 0 -- -- 24
2018-12-03 12:00:00 20.3 9 Sudoeste 21 Oeste 0 -- -- 28
2018-12-03 11:00:00 18.6 14 Oeste 22 Sudoeste 0 -- -- 31
2018-12-03 10:00:00 14.9 21 Sudoeste 30 Sudoeste 0 -- -- 41
2018-12-03 09:00:00 13.9 3 Nordeste 32 Sudoeste 0 -- -- 44
2018-12-03 08:00:00 13.5 12 Sudoeste 31 Sudoeste 0 -- -- 44
2018-12-03 07:00:00 14.8 18 Oeste 30 Sudoeste 0 -- -- 41
2018-12-03 06:00:00 14.7 16 Sudoeste 28 Sudoeste 0 -- -- 39
2018-12-03 05:00:00 15.8 10 Sudoeste 27 Sudoeste 0 -- -- 36
2018-12-03 04:00:00 15.3 10 Sur 21 Sudoeste 0 -- -- 39
2018-12-03 03:00:00 15.3 13 Sudoeste 22 Sudoeste 0 -- -- 45
2018-12-03 02:00:00 15 11 Sudoeste 18 Sudoeste 0 -- -- 48
2018-12-03 01:00:00 15.2 8 Sudoeste 20 Sur 0 -- -- 50
2018-12-03 00:00:00 14.6 8 Sudoeste 18 Sudoeste 0 -- -- 51
2018-12-02 23:00:00 15.2 8 Sudoeste 17 Oeste 0 -- -- 48
2018-12-02 22:00:00 15.8 9 Sur 23 Sudeste 0 -- -- 46
2018-12-02 21:00:00 16.4 8 Sur 26 Sudoeste 0 -- -- 46
2018-12-02 20:00:00 16.6 9 Sudoeste 24 Sudoeste 0 -- -- 45
2018-12-02 19:00:00 15.9 6 Sur 13 Sur 0 -- -- 48
2018-12-02 18:00:00 16.3 6 Sudoeste 14 Sur 0 -- -- 48
2018-12-02 17:00:00 18 2 Sudeste 23 Oeste 0 -- -- 45
2018-12-02 16:00:00 19.2 12 Sudoeste 26 Sudoeste 0 -- -- 42
2018-12-02 15:00:00 19.8 10 Sudoeste 30 Sudoeste 0 -- -- 41
2018-12-02 14:00:00 19.5 12 Sudoeste 26 Oeste 0 -- -- 40
2018-12-02 13:00:00 18.8 15 Sudoeste 26 Oeste 0 -- -- 40
2018-12-02 12:00:00 17.7 16 Sudoeste 27 Oeste 0 -- -- 40
2018-12-02 11:00:00 16.2 17 Oeste 30 Sudoeste 0 -- -- 43
2018-12-02 10:00:00 13.6 20 Sudoeste 31 Sudoeste 0 -- -- 50
2018-12-02 09:00:00 11.4 17 Sudoeste 28 Sudoeste 0 -- -- 55
2018-12-02 08:00:00 10.2 13 Oeste 36 Sudoeste 0 -- -- 59
2018-12-02 07:00:00 11.5 23 Sudoeste 38 Sudoeste 0 -- -- 55
2018-12-02 06:00:00 10.5 15 Sudoeste 24 Oeste 0 -- -- 57
2018-12-02 05:00:00 10.8 10 Oeste 31 Sudoeste 0 -- -- 55
2018-12-02 04:00:00 11.3 16 Sudoeste 26 Oeste 0 -- -- 54
2018-12-02 03:00:00 11.4 9 Sudoeste 23 Oeste 0 -- -- 53
2018-12-02 02:00:00 10.5 8 Sudoeste 25 Sudoeste 0 -- -- 54
2018-12-02 01:00:00 12.1 10 Oeste 17 Sudoeste 0 -- -- 47
2018-12-02 00:00:00 12.2 10 Sudoeste 18 Sudoeste 0 -- -- 46
2018-12-01 23:00:00 13 5 Sur 21 Oeste 0 -- -- 42
2018-12-01 22:00:00 12.3 15 Oeste 34 Oeste 0 -- -- 45
2018-12-01 21:00:00 12.1 5 Oeste 20 Oeste 0 -- -- 44
2018-12-01 20:00:00 11.3 6 Sudoeste 15 Oeste 0 -- -- 50
2018-12-01 19:00:00 11.9 5 Sudoeste 12 Oeste 0 -- -- 48
2018-12-01 18:00:00 12.8 5 Sudoeste 15 Sudoeste 0 -- -- 45
2018-12-01 17:00:00 14.4 9 Oeste 19 Oeste 0 -- -- 40
2018-12-01 16:00:00 16.3 8 Oeste 22 Oeste 0 -- -- 34
2018-12-01 15:00:00 15.7 7 Sudoeste 21 Oeste 0 -- -- 37
2018-12-01 14:00:00 16.5 9 Oeste 18 Noroeste 0 -- -- 33
2018-12-01 13:00:00 15.6 5 Sur 16 Sur 0 -- -- 35
2018-12-01 12:00:00 14 11 Sudoeste 17 Sudoeste 0 -- -- 35
2018-12-01 11:00:00 13 5 Sur 24 Sudoeste 0 -- -- 39
2018-12-01 10:00:00 8.6 11 Sudoeste 18 Sudoeste 0 -- -- 51
2018-12-01 09:00:00 6.4 10 Sudoeste 18 Sudoeste 0 -- -- 60
2018-12-01 08:00:00 5.4 3 Sudoeste 17 Sudoeste 0 -- -- 65
2018-12-01 07:00:00 6.2 8 Sudoeste 21 Oeste 0 -- -- 61
2018-12-01 06:00:00 5.5 10 Sudoeste 18 Sur 0 -- -- 66
2018-12-01 05:00:00 5.4 9 Sudoeste 17 Sudoeste 0 -- -- 66
2018-12-01 04:00:00 5.6 11 Sudoeste 18 Sur 0 -- -- 66
2018-12-01 03:00:00 5.5 13 Sudoeste 20 Sudoeste 0 -- -- 68
2018-12-01 02:00:00 5.6 10 Sudoeste 20 Sudoeste 0 -- -- 68
2018-12-01 01:00:00 5.9 9 Sudoeste 17 Sudoeste 0 -- -- 68
2018-12-01 00:00:00 6.2 8 Sudoeste 17 Sudoeste 0 -- -- 68
2018-11-30 23:00:00 7.5 10 Sur 19 Sur 0 -- -- 64
2018-11-30 22:00:00 8.1 7 Sudoeste 19 Sudoeste 0 -- -- 62
2018-11-30 21:00:00 9.4 9 Sudoeste 15 Sudoeste 0 -- -- 56
2018-11-30 20:00:00 9.4 3 Sudoeste 13 Oeste 0 -- -- 58
2018-11-30 19:00:00 10.6 8 Oeste 21 Oeste 0 -- -- 55
2018-11-30 18:00:00 12.2 7 Oeste 19 Oeste 0 -- -- 52
2018-11-30 17:00:00 13.3 3 Noroeste 24 Norte 0 -- -- 49
2018-11-30 16:00:00 14.7 5 Nordeste 27 Noroeste 0 -- -- 45
2018-11-30 15:00:00 15.2 10 Noroeste 27 Noroeste 0 -- -- 45
2018-11-30 14:00:00 13.7 15 Noroeste 33 Noroeste 0 -- -- 51
2018-11-30 13:00:00 14.4 5 Oeste 33 Oeste 0 -- -- 52
2018-11-30 12:00:00 14.5 7 Noroeste 31 Sudoeste 0 -- -- 59
2018-11-30 11:00:00 12.5 17 Oeste 36 Oeste 0 -- -- 71
2018-11-30 10:00:00 11.8 18 Oeste 36 Oeste 0 -- -- 74
2018-11-30 09:00:00 12 5 Sudeste 30 Oeste 0 -- -- 69
2018-11-30 08:00:00 11.1 5 Oeste 19 Sudoeste 0 -- -- 70
2018-11-30 07:00:00 11.5 9 Sudoeste 24 Sudoeste 0 -- -- 55
2018-11-30 06:00:00 10.7 7 Sudoeste 23 Sudoeste 0 -- -- 50
2018-11-30 05:00:00 10.9 9 Sudoeste 18 Sur 0 -- -- 47
2018-11-30 04:00:00 11.3 9 Sudoeste 16 Sudoeste 0 -- -- 43
2018-11-30 03:00:00 12.2 6 Oeste 25 Sudoeste 0 -- -- 34
2018-11-30 02:00:00 14.2 14 Sudoeste 35 Sudoeste 0 -- -- 26
2018-11-30 01:00:00 10.7 10 Sudoeste 15 Sudoeste 0 -- -- 27
2018-11-30 00:00:00 10.8 11 Sudoeste 19 Sudoeste 0 -- -- 25
2018-11-29 23:00:00 11.2 11 Sudoeste 24 Oeste 0 -- -- 26
2018-11-29 22:00:00 11.5 12 Sudoeste 22 Sudoeste 0 -- -- 26
2018-11-29 21:00:00 12.1 15 Oeste 21 Sudoeste 0 -- -- 27
2018-11-29 20:00:00 12.1 14 Sudoeste 23 Sudoeste 0 -- -- 31
2018-11-29 19:00:00 13.4 10 Sudoeste 18 Sudoeste 0 -- -- 34
2018-11-29 18:00:00 15.2 11 Sudoeste 15 Sudoeste 0 -- -- 31
2018-11-29 17:00:00 18.5 5 Oeste 9 Oeste 0 -- -- 26
2018-11-29 16:00:00 20 0 Calma 10 Este 0 -- -- 23
2018-11-29 15:00:00 20 6 Este 11 Este 0 -- -- 26
2018-11-29 14:00:00 19.2 6 Este 9 Este 0 -- -- 29
2018-11-29 13:00:00 18.3 4 Este 8 Este 0 -- -- 28
2018-11-29 12:00:00 16.3 4 Este 6 Este 0 -- -- 28
2018-11-29 11:00:00 16.4 0 Calma 5 Oeste 0 -- -- 27
2018-11-29 10:00:00 11.2 3 Este 6 Nordeste 0 -- -- 33
2018-11-29 09:00:00 8.8 5 Sudoeste 15 Oeste 0 -- -- 33
2018-11-29 08:00:00 4.7 0 Calma 24 Sudoeste 0 -- -- 35
2018-11-29 07:00:00 6.5 10 Sudoeste 22 Oeste 0 -- -- 27
2018-11-29 06:00:00 5.6 6 Oeste 21 Sudoeste 0 -- -- 31
2018-11-29 05:00:00 6.4 11 Oeste 17 Sudoeste 0 -- -- 29
2018-11-29 04:00:00 6.4 11 Oeste 20 Sudoeste 0 -- -- 31
2018-11-29 03:00:00 6.7 12 Sudoeste 22 Sudoeste 0 -- -- 32
2018-11-29 02:00:00 7.4 9 Sudoeste 23 Sudoeste 0 -- -- 31
2018-11-29 01:00:00 7.8 13 Sudoeste 21 Oeste 0 -- -- 32
2018-11-29 00:00:00 8.7 14 Sudoeste 22 Sudoeste 0 -- -- 33
2018-11-28 23:00:00 8.9 9 Oeste 20 Sudoeste 0 -- -- 34
2018-11-28 22:00:00 9.9 10 Sudoeste 16 Sudoeste 0 -- -- 34
2018-11-28 21:00:00 11.2 8 Sudoeste 16 Sudoeste 0 -- -- 34
2018-11-28 14:00:00 18.6 5 Nordeste 14 Este 0 -- -- 30
2018-11-28 13:00:00 17.2 12 Este 17 Este 0 -- -- 34
2018-11-28 12:00:00 17.6 9 Oeste 27 Oeste 0 -- -- 27
2018-11-28 11:00:00 16.9 5 Sur 14 Sudoeste 0 -- -- 31
2018-11-28 10:00:00 12.8 8 Sudoeste 18 Sudoeste 0 -- -- 39
2018-11-28 09:00:00 8.9 9 Sudoeste 17 Sudoeste 0 -- -- 50
2018-11-28 08:00:00 6.9 8 Sudoeste 19 Sudoeste 0 -- -- 55
2018-11-28 07:00:00 7 12 Sudoeste 18 Sudoeste 0 -- -- 54
2018-11-28 06:00:00 7.2 8 Sudoeste 15 Sudoeste 0 -- -- 52
2018-11-28 05:00:00 7.6 10 Sudoeste 17 Sudoeste 0 -- -- 50
2018-11-28 04:00:00 7.6 10 Sudoeste 21 Oeste 0 -- -- 52
2018-11-28 03:00:00 7.1 7 Sudoeste 21 Sudoeste 0 -- -- 58
2018-11-28 02:00:00 8.3 6 Sudoeste 15 Sudoeste 0 -- -- 54
2018-11-28 01:00:00 8.9 9 Sudoeste 17 Oeste 0 -- -- 54
2018-11-28 00:00:00 11.5 15 Sudoeste 27 Sudoeste 0 -- -- 46
2018-11-27 23:00:00 11.3 15 Sudoeste 23 Sudoeste 0 -- -- 48
2018-11-27 22:00:00 9.7 10 Sudoeste 27 Oeste 0 -- -- 53
2018-11-27 21:00:00 9.6 7 Sur 23 Sudoeste 0 -- -- 52
2018-11-27 20:00:00 12.1 10 Oeste 17 Sudoeste 0 -- -- 42
2018-11-27 19:00:00 12.4 8 Oeste 12 Sudoeste 0 -- -- 43
2018-11-27 18:00:00 13.2 7 Sudeste 14 Sudoeste 0 -- -- 43
2018-11-27 17:00:00 15.4 5 Oeste 23 Oeste 0 -- -- 35
2018-11-27 16:00:00 17.1 10 Oeste 25 Oeste 0 -- -- 31
2018-11-27 15:00:00 17.7 10 Oeste 19 Oeste 0 -- -- 28
2018-11-27 14:00:00 15.8 7 Nordeste 15 Este 0 -- -- 36
2018-11-27 13:00:00 16.4 5 Sudoeste 13 Sudoeste 0 -- -- 35
2018-11-27 12:00:00 14.4 5 Este 16 Oeste 0 -- -- 44
2018-11-27 11:00:00 12.9 7 Oeste 23 Sudoeste 0 -- -- 46
2018-11-27 10:00:00 11.4 14 Sudoeste 24 Sudoeste 0 -- -- 52
2018-11-27 09:00:00 8.9 9 Sudoeste 23 Oeste 0 -- -- 60
2018-11-27 08:00:00 8.1 6 Sudoeste 24 Sudoeste 0 -- -- 62
2018-11-27 07:00:00 7.8 18 Sudoeste 27 Sudoeste 0 -- -- 63
2018-11-27 06:00:00 8.8 8 Oeste 15 Oeste 0 -- -- 59
2018-11-27 05:00:00 8.1 6 Sudoeste 13 Sudoeste 0 -- -- 62
2018-11-27 04:00:00 8.1 10 Sudoeste 18 Oeste 0 -- -- 63
2018-11-27 03:00:00 8.8 8 Oeste 19 Oeste 0 -- -- 61
2018-11-27 02:00:00 9 5 Oeste 30 Oeste 0 -- -- 60
2018-11-27 01:00:00 9.2 7 Sur 27 Sudoeste 0 -- -- 60
2018-11-27 00:00:00 8.8 5 Sudoeste 20 Oeste 0 -- -- 62
2018-11-26 23:00:00 8.8 10 Sudoeste 20 Sudoeste 0 -- -- 64
2018-11-26 22:00:00 9.4 10 Sudoeste 19 Sudoeste 0 -- -- 61
2018-11-26 21:00:00 9.8 5 Oeste 27 Noroeste 0 -- -- 59
2018-11-26 20:00:00 10.7 12 Oeste 33 Oeste 0 -- -- 58
2018-11-26 19:00:00 10.8 9 Sudoeste 26 Oeste 0 -- -- 60
2018-11-26 18:00:00 11.4 13 Oeste 35 Oeste 0 -- -- 56
2018-11-26 17:00:00 12.2 15 Oeste 39 Noroeste 0 -- -- 53
2018-11-26 16:00:00 12.6 14 Oeste 37 Sudoeste 0 -- -- 51
2018-11-26 15:00:00 13 10 Oeste 41 Oeste 0 -- -- 50
2018-11-26 14:00:00 12.3 20 Noroeste 56 Oeste 0 -- -- 51
2018-11-26 13:00:00 13.4 15 Noroeste 52 Noroeste 0 -- -- 47
2018-11-26 12:00:00 12.8 26 Oeste 60 Oeste 0 -- -- 49
2018-11-26 11:00:00 11.4 31 Oeste 74 Sudoeste 0 -- -- 52
2018-11-26 10:00:00 9.8 27 Oeste 67 Oeste 0 -- -- 55
2018-11-26 09:00:00 9.6 19 Oeste 61 Sudoeste 0 -- -- 57
2018-11-26 08:00:00 10 22 Oeste 66 Oeste 0 -- -- 58
2018-11-26 07:00:00 10.9 13 Oeste 54 Oeste 0 -- -- 60
2018-11-26 06:00:00 12.8 20 Oeste 46 Oeste 0 -- -- 53
2018-11-26 05:00:00 13.8 8 Sudoeste 20 Sudoeste 0 -- -- 68
2018-11-26 04:00:00 14 6 Oeste 24 Oeste 0 -- -- 66
2018-11-26 03:00:00 14.5 14 Oeste 26 Oeste 0 -- -- 63
2018-11-26 02:00:00 13.5 6 Sudoeste 14 Sudoeste 0 -- -- 69
2018-11-26 01:00:00 13.9 8 Sudoeste 17 Sudoeste 0 -- -- 66
2018-11-26 00:00:00 14.3 6 Sudoeste 14 Sudoeste 0 -- -- 63
2018-11-25 23:00:00 14.7 9 Sudoeste 32 Sudoeste 0 -- -- 62
2018-11-25 22:00:00 14.5 12 Sudoeste 28 Sudoeste 0 -- -- 64
2018-11-25 21:00:00 14.6 16 Oeste 32 Sudoeste 0 -- -- 64
2018-11-25 20:00:00 14.7 8 Sudoeste 22 Sudoeste 0 -- -- 59
2018-11-25 19:00:00 15.1 8 Sudoeste 22 Sudoeste 0 -- -- 58
2018-11-25 18:00:00 15.1 5 Sudoeste 18 Oeste 0 -- -- 61
2018-11-25 17:00:00 15.7 5 Sudoeste 23 Sudoeste 0 -- -- 56
2018-11-25 16:00:00 16.4 11 Sudoeste 33 Sudoeste 0 -- -- 54
2018-11-25 15:00:00 16.4 12 Sudoeste 34 Sudoeste 0 -- -- 56
2018-11-25 14:00:00 16.6 9 Sudoeste 33 Sudoeste 0 -- -- 57
2018-11-25 13:00:00 16.7 15 Sudoeste 32 Sur 0 -- -- 54
2018-11-25 12:00:00 15.6 22 Sudoeste 42 Sudoeste 0 -- -- 56
2018-11-25 11:00:00 15 14 Sudoeste 33 Sudoeste 0 -- -- 56
2018-11-25 10:00:00 13.8 9 Sudoeste 21 Sudoeste 0 -- -- 61
2018-11-25 09:00:00 11.6 7 Sudoeste 20 Sudoeste 0 -- -- 68
2018-11-25 08:00:00 11 14 Sudoeste 32 Sur 0 -- -- 70
2018-11-25 07:00:00 10.9 16 Oeste 32 Sudoeste 0 -- -- 61
2018-11-25 06:00:00 10.3 12 Oeste 29 Oeste 0 -- -- 63
2018-11-25 05:00:00 8.4 4 Sudoeste 18 Sudoeste 0 -- -- 66
2018-11-25 04:00:00 8.9 5 Sudoeste 24 Sudoeste 0 -- -- 64
2018-11-25 03:00:00 7.7 4 Sudoeste 14 Sur 0 -- -- 67
2018-11-25 02:00:00 7.7 5 Sudoeste 17 Oeste 0 -- -- 68
2018-11-25 01:00:00 8.9 9 Sudoeste 21 Oeste 0 -- -- 64
2018-11-25 00:00:00 7.4 4 Sudoeste 20 Sur 0 -- -- 71
2018-11-24 23:00:00 7.7 6 Sudoeste 18 Sudoeste 0 -- -- 67
2018-11-24 22:00:00 7.2 9 Sudoeste 16 Sudoeste 0 -- -- 69
2018-11-24 21:00:00 7 11 Sudoeste 16 Oeste 0 -- -- 71
2018-11-24 20:00:00 7.9 9 Sudoeste 15 Sudoeste 0 -- -- 71
2018-11-24 19:00:00 9.3 9 Sudoeste 21 Oeste 0 -- -- 65
2018-11-24 18:00:00 10.7 8 Oeste 21 Oeste 0 -- -- 59
2018-11-24 17:00:00 12 2 Este 9 Nordeste 0 -- -- 57
2018-11-24 16:00:00 12.8 7 Nordeste 12 Nordeste 0 -- -- 55
2018-11-24 15:00:00 13.4 3 Este 9 Norte 0 -- -- 51
2018-11-24 14:00:00 13 5 Oeste 17 Oeste 0 -- -- 50
2018-11-24 13:00:00 12.8 2 Sur 11 Sudoeste 0 -- -- 51
2018-11-24 12:00:00 11.8 6 Sur 17 Sur 0 -- -- 58
2018-11-24 11:00:00 10.1 8 Sudoeste 18 Sudoeste 0 -- -- 64
2018-11-24 10:00:00 8.1 10 Sudoeste 17 Sudoeste 0 -- -- 72
2018-11-24 09:00:00 6.4 8 Sudoeste 17 Sudoeste 0 -- -- 77
2018-11-24 08:00:00 4.8 13 Sudoeste 21 Sudoeste 0 -- -- 81
2018-11-24 07:00:00 4.3 16 Sudoeste 22 Sudoeste 0 -- -- 82
2018-11-24 06:00:00 5.2 13 Sudoeste 18 Sudoeste 0 -- -- 79
2018-11-24 05:00:00 5.6 7 Sudoeste 17 Sudoeste 0 -- -- 78
2018-11-24 04:00:00 5.5 6 Sudoeste 15 Sudoeste 0 -- -- 81
2018-11-24 03:00:00 6.6 8 Sudoeste 17 Sudoeste 0 -- -- 77
2018-11-24 02:00:00 6.6 10 Sudoeste 15 Sudoeste 0 -- -- 78
2018-11-24 01:00:00 6.6 4 Sudoeste 17 Sudoeste 0 -- -- 81
2018-11-24 00:00:00 7.2 12 Sudoeste 15 Sudoeste 0 -- -- 80
2018-11-23 23:00:00 7.7 8 Sudoeste 13 Sudoeste 0 -- -- 80
2018-11-23 22:00:00 8.3 6 Sudoeste 13 Sudoeste 0 -- -- 79
2018-11-23 21:00:00 9.5 7 Sudoeste 13 Oeste 0 -- -- 76
2018-11-23 20:00:00 10.6 3 Sur 16 Sur 0 -- -- 71
2018-11-23 19:00:00 11.4 4 Sudoeste 18 Oeste 0 -- -- 69
2018-11-23 18:00:00 11.9 3 Sur 15 Noroeste 0 -- -- 68
2018-11-23 17:00:00 12.5 6 Oeste 25 Oeste 0 -- -- 66
2018-11-23 16:00:00 13.3 10 Oeste 25 Noroeste 0 -- -- 64
2018-11-23 15:00:00 14.2 10 Oeste 26 Oeste 0 -- -- 65
2018-11-23 14:00:00 14 10 Oeste 23 Oeste 0 -- -- 67
2018-11-23 13:00:00 13.7 9 Sudoeste 20 Oeste 0 -- -- 74
2018-11-23 12:00:00 13.1 4 Sudoeste 10 Oeste 0 -- -- 77
2018-11-23 11:00:00 11.6 2 Noroeste 4 Oeste 0.2 -- -- 91
2018-11-23 10:00:00 10.5 0 Calma 6 Este 0 -- -- 90
2018-11-23 09:00:00 9.8 0 Calma 13 Oeste 0.2 -- -- 92
2018-11-23 08:00:00 9.6 2 Sudoeste 6 Sudoeste 0 -- -- 90
2018-11-23 07:00:00 9.5 0 Calma 4 Sudoeste 0 -- -- 89
2018-11-23 06:00:00 9.4 0 Calma 8 Nordeste 0 -- -- 90
2018-11-23 05:00:00 9.3 4 Nordeste 12 Este 0 -- -- 90
2018-11-23 04:00:00 10.3 3 Sur 10 Sur 0 -- -- 82
2018-11-23 03:00:00 9.6 3 Oeste 9 Sur 0 -- -- 87
2018-11-23 02:00:00 9.3 2 Este 12 Sudoeste 0 -- -- 89
2018-11-23 01:00:00 9.9 5 Sudoeste 12 Sudoeste 0 -- -- 85
2018-11-23 00:00:00 10 6 Sudoeste 11 Sudoeste 0 -- -- 85
2018-11-22 23:00:00 10.6 4 Oeste 9 Oeste 0 -- -- 83
2018-11-22 22:00:00 10.5 0 Calma 8 Sudoeste 0 -- -- 84
2018-11-22 21:00:00 10.4 4 Sur 10 Sudoeste 0 -- -- 86
2018-11-22 20:00:00 10.8 0 Calma 6 Sudoeste 0 -- -- 84
2018-11-22 19:00:00 11.1 3 Sudoeste 5 Sur 0 -- -- 86
2018-11-22 18:00:00 11.3 0 Calma 6 Este 0 -- -- 89
2018-11-22 17:00:00 12.6 0 Calma 6 Oeste 0 -- -- 73
2018-11-22 16:00:00 13.1 3 Noroeste 4 Noroeste 0.2 -- -- 71
2018-11-22 15:00:00 12.8 5 Oeste 11 Sudoeste 0 -- -- 73
2018-11-22 14:00:00 12.2 2 Sudeste 5 Noroeste 0.2 -- -- 81
2018-11-22 13:00:00 12 0 Calma 5 Noroeste 0 -- -- 79
2018-11-22 12:00:00 11.4 2 Norte 9 Este 0.2 -- -- 84
2018-11-22 11:00:00 12.2 3 Sur 9 Sudoeste 0 -- -- 70
2018-11-22 10:00:00 11.2 4 Sudoeste 10 Sudoeste 0 -- -- 73
2018-11-22 09:00:00 10.1 3 Sudoeste 12 Sudoeste 0 -- -- 78
2018-11-22 08:00:00 9.8 8 Sudoeste 12 Oeste 0 -- -- 79
2018-11-22 07:00:00 9.7 4 Sudoeste 10 Sudoeste 0 -- -- 80
2018-11-22 06:00:00 9.7 5 Sudoeste 15 Sudoeste 0 -- -- 80
2018-11-22 05:00:00 9.6 8 Sudoeste 13 Sudoeste 0 -- -- 80
2018-11-22 04:00:00 9.7 8 Sudoeste 12 Sudoeste 0 -- -- 79
2018-11-22 03:00:00 9.5 2 Sudoeste 8 Sudoeste 0 -- -- 81
2018-11-22 02:00:00 9.7 3 Oeste 16 Oeste 0 -- -- 78
2018-11-22 01:00:00 10.4 10 Sudoeste 14 Sudoeste 0 -- -- 74
2018-11-22 00:00:00 9.8 8 Sudoeste 17 Sudoeste 0 -- -- 76
2018-11-21 23:00:00 9.3 9 Sudoeste 20 Sudoeste 0 -- -- 79
2018-11-21 22:00:00 9.6 9 Sudoeste 21 Sudoeste 0 -- -- 80
2018-11-21 21:00:00 10.3 10 Sudoeste 19 Sudoeste 0 -- -- 78
2018-11-21 20:00:00 11.2 8 Sudoeste 15 Sudoeste 0 -- -- 76
2018-11-21 19:00:00 12.3 6 Sudoeste 11 Sudoeste 0 -- -- 72
2018-11-21 18:00:00 12.9 5 Sudoeste 19 Sur 0 -- -- 67
2018-11-21 17:00:00 14.9 5 Sudoeste 15 Sudoeste 0 -- -- 56
2018-11-21 16:00:00 16.6 9 Oeste 23 Oeste 0 -- -- 51
2018-11-21 15:00:00 15.8 11 Oeste 20 Oeste 0 -- -- 51
2018-11-21 14:00:00 14.7 7 Oeste 18 Oeste 0 -- -- 54
2018-11-21 13:00:00 14.4 8 Sudoeste 18 Sudoeste 0 -- -- 53
2018-11-21 12:00:00 13.8 6 Oeste 15 Sudoeste 0 -- -- 55
2018-11-21 11:00:00 13 3 Sur 13 Sudoeste 0 -- -- 60
2018-11-21 10:00:00 12.3 2 Sudoeste 9 Sudoeste 0 -- -- 63
2018-11-21 09:00:00 10.1 5 Sudoeste 23 Oeste 0 -- -- 69
2018-11-21 08:00:00 11 15 Oeste 26 Sudoeste 0 -- -- 63
2018-11-21 07:00:00 10 6 Sudoeste 23 Oeste 0 -- -- 68
2018-11-21 06:00:00 10.4 12 Oeste 27 Sudoeste 0 -- -- 66
2018-11-21 05:00:00 9.9 7 Sudoeste 17 Sudoeste 0 -- -- 69
2018-11-21 04:00:00 9.6 9 Sudoeste 15 Oeste 0 -- -- 70
2018-11-21 03:00:00 10 5 Sudoeste 15 Sudoeste 0 -- -- 69
2018-11-21 02:00:00 9.8 4 Sudoeste 16 Sudoeste 0 -- -- 72
2018-11-21 01:00:00 10.6 10 Sudoeste 35 Sudoeste 0 -- -- 68
2018-11-21 00:00:00 10.7 11 Sudoeste 21 Oeste 0 -- -- 64
2018-11-20 23:00:00 11 8 Sudoeste 32 Oeste 0 -- -- 63
2018-11-20 22:00:00 10.4 3 Sudoeste 19 Sudoeste 0 -- -- 66
2018-11-20 21:00:00 10.7 10 Sudoeste 28 Sudoeste 0 -- -- 67
2018-11-20 20:00:00 11.1 12 Sudoeste 37 Oeste 0 -- -- 75
2018-11-20 19:00:00 10.6 9 Sudoeste 41 Oeste 0.4 -- -- 82
2018-11-20 18:00:00 12.4 5 Sudoeste 24 Oeste 0.2 -- -- 74
2018-11-20 17:00:00 13 13 Sudoeste 27 Sudoeste 0 -- -- 69
2018-11-20 16:00:00 13.3 13 Oeste 33 Sudoeste 0 -- -- 66
2018-11-20 15:00:00 14.7 13 Oeste 27 Oeste 0 -- -- 60
2018-11-20 14:00:00 12.9 7 Sudoeste 31 Sudoeste 0.2 -- -- 75
2018-11-20 13:00:00 14.3 14 Sudoeste 34 Sudoeste 0 -- -- 57
2018-11-20 12:00:00 15.1 13 Sudoeste 25 Sudoeste 0 -- -- 54
2018-11-20 11:00:00 14.3 14 Oeste 27 Sudoeste 0 -- -- 58
2018-11-20 10:00:00 13.1 7 Sudoeste 22 Sudoeste 0 -- -- 70
2018-11-20 09:00:00 10.8 6 Sudoeste 13 Sudoeste 0 -- -- 78
2018-11-20 08:00:00 10.1 5 Sudoeste 13 Sudoeste 0 -- -- 83
2018-11-20 07:00:00 10.8 9 Sudoeste 17 Oeste 0 -- -- 81
2018-11-20 06:00:00 10.4 5 Sudoeste 10 Sudoeste 0 -- -- 84
2018-11-20 05:00:00 10.5 6 Sudoeste 12 Sudoeste 0 -- -- 83
2018-11-20 04:00:00 10.5 3 Sudoeste 18 Sudoeste 0 -- -- 83
2018-11-20 03:00:00 10.8 7 Sudoeste 17 Oeste 0 -- -- 80
2018-11-20 02:00:00 10.6 9 Oeste 23 Oeste 0 -- -- 82
2018-11-20 01:00:00 10.6 10 Sudoeste 16 Oeste 0 -- -- 83
2018-11-20 00:00:00 10.1 4 Sudoeste 10 Sudoeste 0 -- -- 91
2018-11-19 23:00:00 10.1 4 Sudoeste 8 Sudoeste 0 -- -- 93
2018-11-19 22:00:00 9.9 0 Calma 5 Sur 0 -- -- 96
2018-11-19 21:00:00 9.9 3 Sur 5 Sur 0 -- -- 96
2018-11-19 20:00:00 9.8 3 Este 10 Este 0.2 -- -- 98
2018-11-19 19:00:00 9.9 6 Este 14 Este 0.8 -- -- 97
2018-11-19 18:00:00 10.2 5 Nordeste 26 Noroeste 1.2 -- -- 94
2018-11-19 17:00:00 10.4 10 Norte 24 Nordeste 3.2 -- -- 93
2018-11-19 16:00:00 10.4 8 Nordeste 31 Nordeste 1.8 -- -- 95
2018-11-19 15:00:00 10.8 17 Norte 37 Norte 6.8 -- -- 89
2018-11-19 14:00:00 10.8 8 Norte 33 Norte 7.2 -- -- 88
2018-11-19 13:00:00 10.8 15 Norte 37 Norte 5 -- -- 90
2018-11-19 12:00:00 11.2 15 Norte 38 Norte 4.8 -- -- 87
2018-11-19 11:00:00 10.9 9 Norte 41 Nordeste 2.6 -- -- 88
2018-11-19 10:00:00 10.9 13 Norte 42 Norte 4 -- -- 87
2018-11-19 09:00:00 10.7 14 Norte 35 Noroeste 3.4 -- -- 90
2018-11-19 08:00:00 10.1 3 Noroeste 12 Nordeste 1 -- -- 98
2018-11-19 07:00:00 10.2 3 Este 8 Nordeste 0.4 -- -- 98
2018-11-19 06:00:00 10.4 5 Nordeste 9 Nordeste 0.6 -- -- 98
2018-11-19 05:00:00 10.4 0 Calma 3 Sur 1.6 -- -- 97
2018-11-19 04:00:00 10.4 0 Calma 15 Norte 1.6 -- -- 96
2018-11-19 03:00:00 10.9 6 Nordeste 17 Nordeste 0.2 -- -- 93
2018-11-19 02:00:00 10.9 9 Nordeste 17 Nordeste 0.2 -- -- 95
2018-11-19 01:00:00 11.1 7 Nordeste 13 Nordeste 0 -- -- 90
2018-11-19 00:00:00 11.3 5 Nordeste 18 Nordeste 0 -- -- 87
2018-11-18 23:00:00 11.3 9 Nordeste 17 Nordeste 0 -- -- 88
2018-11-18 22:00:00 11.4 6 Nordeste 20 Norte 0 -- -- 87
2018-11-18 21:00:00 11.1 9 Nordeste 18 Nordeste 0 -- -- 88
2018-11-18 20:00:00 11.3 5 Nordeste 20 Nordeste 0 -- -- 80
2018-11-18 19:00:00 11.4 11 Nordeste 20 Nordeste 0 -- -- 84
2018-11-18 18:00:00 11.5 7 Nordeste 18 Este 0 -- -- 84
2018-11-18 17:00:00 12.3 5 Nordeste 17 Este 0 -- -- 78
2018-11-18 16:00:00 12.8 8 Este 26 Sudeste 0 -- -- 73
2018-11-18 15:00:00 13.6 12 Este 22 Este 0 -- -- 66
2018-11-18 14:00:00 13.7 10 Este 20 Este 0 -- -- 72
2018-11-18 13:00:00 14 5 Nordeste 13 Este 0 -- -- 77
2018-11-18 12:00:00 12.3 5 Este 9 Este 0 -- -- 90
2018-11-18 11:00:00 11.6 2 Este 5 Este 0 -- -- 91
2018-11-18 10:00:00 10.7 3 Este 6 Sudoeste 0 -- -- 94
2018-11-18 09:00:00 9.3 3 Sur 6 Sur 0 -- -- 98
2018-11-18 08:00:00 9 3 Noroeste 5 Nordeste 0 -- -- 98
2018-11-18 07:00:00 9.4 3 Nordeste 7 Sudoeste 0 -- -- 96
2018-11-18 06:00:00 9.5 0 Calma 6 Sudoeste 0 -- -- 97
2018-11-18 05:00:00 9.7 3 Sur 6 Oeste 0 -- -- 97
2018-11-18 04:00:00 10.1 2 Sudoeste 9 Oeste 0 -- -- 97
2018-11-18 03:00:00 10.5 4 Oeste 9 Sudoeste 0 -- -- 95
2018-11-18 02:00:00 10.7 7 Sudoeste 9 Sudoeste 0 -- -- 97
2018-11-18 01:00:00 10.5 0 Calma 4 Este 0 -- -- 97
2018-11-18 00:00:00 10.9 0 Calma 7 Sudoeste 0 -- -- 97
2018-11-17 23:00:00 11.1 2 Sudoeste 4 Sur 0 -- -- 98
2018-11-17 22:00:00 11.2 0 Calma 2 Sudeste 0 -- -- 98
2018-11-17 21:00:00 11.3 0 Calma 2 Sudoeste 0 -- -- 97
2018-11-17 20:00:00 11.5 0 Calma 5 Nordeste 0 -- -- 96
2018-11-17 19:00:00 12.1 0 Calma 8 Nordeste 0 -- -- 95
2018-11-17 18:00:00 12.2 4 Nordeste 11 Nordeste 0 -- -- 95
2018-11-17 17:00:00 12.5 5 Nordeste 13 Nordeste 0 -- -- 94
2018-11-17 16:00:00 12.7 6 Nordeste 13 Este 0.4 -- -- 95
2018-11-17 15:00:00 12.9 6 Nordeste 19 Nordeste 0.4 -- -- 94
2018-11-17 14:00:00 13.7 7 Nordeste 12 Nordeste 0 -- -- 89
2018-11-17 13:00:00 13.8 4 Nordeste 9 Nordeste 0 -- -- 86
2018-11-17 12:00:00 13.2 4 Este 12 Nordeste 0 -- -- 93
2018-11-17 11:00:00 12.8 5 Nordeste 9 Nordeste 0 -- -- 97
2018-11-17 10:00:00 12 0 Calma 4 Sudoeste 1 -- -- 99
2018-11-17 09:00:00 11.6 3 Sur 4 Este 1.8 -- -- 99
2018-11-17 08:00:00 11.6 0 Calma 6 Este 5 -- -- 99
2018-11-17 07:00:00 11.8 2 Este 6 Este 4 -- -- 98
2018-11-17 06:00:00 12.1 4 Este 10 Norte 0.6 -- -- 97
2018-11-17 05:00:00 12.2 5 Nordeste 17 Norte 1.8 -- -- 96
2018-11-17 04:00:00 12.3 7 Nordeste 14 Nordeste 1.2 -- -- 98
2018-11-17 03:00:00 12.2 0 Calma 4 Este 0 -- -- 98
2018-11-17 02:00:00 12.4 3 Este 4 Este 0 -- -- 97
2018-11-17 01:00:00 12.4 0 Calma 4 Sudeste 0 -- -- 97
2018-11-17 00:00:00 12.3 3 Sur 5 Sudeste 0 -- -- 96
2018-11-16 23:00:00 12 0 Calma 6 Sudeste 0.2 -- -- 95
2018-11-16 22:00:00 12.6 0 Calma 17 Norte 0.4 -- -- 94
2018-11-16 21:00:00 13.3 7 Nordeste 15 Norte 0 -- -- 94
2018-11-16 20:00:00 13.4 6 Nordeste 15 Nordeste 0 -- -- 94
2018-11-16 19:00:00 13.8 9 Nordeste 16 Nordeste 0 -- -- 92
2018-11-16 18:00:00 14 8 Nordeste 18 Nordeste 0 -- -- 90
2018-11-16 17:00:00 14.4 7 Nordeste 27 Norte 0 -- -- 89
2018-11-16 16:00:00 15.1 9 Nordeste 22 Nordeste 0 -- -- 83
2018-11-16 15:00:00 14.7 11 Nordeste 21 Este 0 -- -- 86
2018-11-16 14:00:00 14.4 8 Este 19 Nordeste 0.2 -- -- 91
2018-11-16 13:00:00 14.8 8 Nordeste 18 Nordeste 0.2 -- -- 88
2018-11-16 12:00:00 15.4 10 Nordeste 19 Nordeste 0 -- -- 87
2018-11-16 11:00:00 15.3 9 Nordeste 16 Nordeste 0 -- -- 88
2018-11-16 10:00:00 14.3 5 Este 10 Nordeste 0 -- -- 97
2018-11-16 09:00:00 13.3 3 Este 4 Sudeste 0 -- -- 99
2018-11-16 08:00:00 13 0 Calma 7 Sudeste 0 -- -- 99
2018-11-16 07:00:00 13.1 4 Nordeste 9 Nordeste 0 -- -- 98
2018-11-16 06:00:00 13.2 0 Calma 4 Noroeste 0 -- -- 98
2018-11-16 05:00:00 13.2 0 Calma 4 Este 0 -- -- 98
2018-11-16 04:00:00 13.3 0 Calma 4 Noroeste 0 -- -- 98
2018-11-16 03:00:00 13.2 0 Calma 2 Nordeste 0 -- -- 98
2018-11-16 02:00:00 13.1 0 Calma 5 Nordeste 0 -- -- 98
2018-11-16 01:00:00 13.5 3 Este 10 Nordeste 0 -- -- 96
2018-11-16 00:00:00 13.8 6 Nordeste 12 Nordeste 0 -- -- 94
2018-11-15 23:00:00 13.7 6 Nordeste 13 Nordeste 0 -- -- 96
2018-11-15 22:00:00 13.5 3 Este 6 Nordeste 0 -- -- 98
2018-11-15 21:00:00 13.6 3 Nordeste 6 Este 0 -- -- 98
2018-11-15 20:00:00 13.8 3 Este 14 Nordeste 0 -- -- 96
2018-11-15 19:00:00 14 4 Nordeste 12 Este 0 -- -- 95
2018-11-15 18:00:00 14 7 Nordeste 16 Nordeste 0 -- -- 94
2018-11-15 17:00:00 14.4 6 Nordeste 19 Nordeste 0 -- -- 91
2018-11-15 16:00:00 14.6 10 Nordeste 18 Nordeste 0 -- -- 90
2018-11-15 15:00:00 15 8 Este 18 Este 0 -- -- 88
2018-11-15 14:00:00 15.4 8 Este 14 Este 0 -- -- 88
2018-11-15 13:00:00 14.3 5 Este 10 Este 0 -- -- 93
2018-11-15 12:00:00 12.8 0 Calma 8 Sur 2.8 -- -- 98
2018-11-15 11:00:00 12.5 3 Sur 10 Sudoeste 8.2 -- -- 98
2018-11-15 10:00:00 12.6 3 Sudeste 8 Sur 3.4 -- -- 97
2018-11-15 09:00:00 12.9 4 Nordeste 15 Nordeste 1.2 -- -- 96
2018-11-15 08:00:00 13 3 Este 4 Este 0 -- -- 97
2018-11-15 07:00:00 13 4 Sur 15 Nordeste 1.6 -- -- 96
2018-11-15 06:00:00 13.5 6 Nordeste 13 Nordeste 0 -- -- 94
2018-11-15 05:00:00 13.3 5 Nordeste 12 Este 0 -- -- 96
2018-11-15 04:00:00 12.9 5 Este 19 Nordeste 0 -- -- 94
2018-11-15 03:00:00 13.1 8 Nordeste 17 Nordeste 0 -- -- 94
2018-11-15 02:00:00 12.7 5 Este 16 Nordeste 0 -- -- 93
2018-11-15 01:00:00 12.7 5 Este 15 Este 0 -- -- 97
2018-11-15 00:00:00 13.1 4 Este 10 Este 0 -- -- 97
2018-11-14 23:00:00 13.3 4 Nordeste 9 Este 0 -- -- 95
2018-11-14 22:00:00 13.4 3 Este 6 Este 0 -- -- 93
2018-11-14 21:00:00 13.7 3 Este 9 Nordeste 0 -- -- 91
2018-11-14 20:00:00 13.7 4 Este 15 Nordeste 0 -- -- 91
2018-11-14 19:00:00 14 6 Nordeste 16 Nordeste 0 -- -- 88
2018-11-14 18:00:00 14.3 10 Nordeste 20 Nordeste 0 -- -- 86
2018-11-14 17:00:00 14.9 10 Nordeste 22 Nordeste 0 -- -- 81
2018-11-14 16:00:00 15.3 10 Nordeste 25 Nordeste 0 -- -- 81
2018-11-14 15:00:00 15.7 13 Nordeste 26 Nordeste 0 -- -- 82
2018-11-14 14:00:00 15.8 8 Nordeste 23 Norte 0 -- -- 82
2018-11-14 13:00:00 16 11 Nordeste 20 Nordeste 0 -- -- 82
2018-11-14 12:00:00 14.9 9 Nordeste 18 Este 0 -- -- 87
2018-11-14 11:00:00 14.1 9 Nordeste 18 Nordeste 0 -- -- 92
2018-11-14 10:00:00 13.5 3 Este 9 Este 0 -- -- 96
2018-11-14 09:00:00 12.9 3 Este 6 Este 0 -- -- 98
2018-11-14 08:00:00 12.9 2 Nordeste 9 Nordeste 0 -- -- 98
2018-11-14 07:00:00 12.9 3 Nordeste 7 Este 0 -- -- 98
2018-11-14 06:00:00 12.9 4 Este 6 Nordeste 0 -- -- 97
2018-11-14 05:00:00 13.2 4 Este 8 Nordeste 0 -- -- 97
2018-11-14 04:00:00 13.5 2 Nordeste 6 Nordeste 0 -- -- 97
2018-11-14 03:00:00 13.4 2 Este 6 Este 0 -- -- 96
2018-11-14 02:00:00 13.3 2 Nordeste 10 Este 0 -- -- 96
2018-11-14 01:00:00 13.4 4 Este 9 Este 0 -- -- 97
2018-11-14 00:00:00 13.4 5 Este 9 Nordeste 0 -- -- 97
2018-11-13 23:00:00 13.4 4 Nordeste 10 Nordeste 0 -- -- 96
2018-11-13 22:00:00 13.4 2 Nordeste 8 Nordeste 0 -- -- 96
2018-11-13 21:00:00 13.6 5 Este 13 Nordeste 0 -- -- 94
2018-11-13 20:00:00 13.9 6 Nordeste 16 Nordeste 0 -- -- 93
2018-11-13 19:00:00 14.2 9 Nordeste 20 Nordeste 0 -- -- 92
2018-11-13 18:00:00 14.6 13 Nordeste 21 Este 0 -- -- 90
2018-11-13 17:00:00 15.3 13 Nordeste 22 Nordeste 0 -- -- 86
2018-11-13 16:00:00 15.8 9 Nordeste 22 Este 0 -- -- 85
2018-11-13 15:00:00 16.4 12 Nordeste 23 Nordeste 0 -- -- 81
2018-11-13 14:00:00 16.1 9 Nordeste 20 Este 0 -- -- 80
2018-11-13 13:00:00 15.2 10 Nordeste 18 Este 0 -- -- 87
2018-11-13 12:00:00 14.5 8 Nordeste 19 Nordeste 0 -- -- 91
2018-11-13 11:00:00 14.1 8 Nordeste 15 Nordeste 0 -- -- 93
2018-11-13 10:00:00 13.8 4 Este 8 Este 0 -- -- 93
2018-11-13 09:00:00 13.1 0 Calma 3 Este 0 -- -- 94
2018-11-13 08:00:00 12.8 0 Calma 2 Este 0 -- -- 94
2018-11-13 07:00:00 12.7 0 Calma 0 Calma 0 -- -- 94
2018-11-13 06:00:00 12.4 0 Calma 2 Este 0 -- -- 95
2018-11-13 05:00:00 12.6 0 Calma 2 Sur 0 -- -- 95
2018-11-13 04:00:00 12.4 0 Calma 4 Sudoeste 0 -- -- 95
2018-11-13 03:00:00 12.3 0 Calma 2 Sudoeste 0 -- -- 97
2018-11-13 02:00:00 12.2 0 Calma 3 Este 0 -- -- 97
2018-11-13 01:00:00 11.5 0 Calma 6 Noroeste 0 -- -- 97
2018-11-13 00:00:00 12.1 2 Sudoeste 3 Oeste 0 -- -- 97
2018-11-12 23:00:00 12.7 0 Calma 3 Este 0 -- -- 96
2018-11-12 22:00:00 13.4 0 Calma 4 Este 0 -- -- 94
2018-11-12 21:00:00 14.2 3 Este 9 Nordeste 0 -- -- 92
2018-11-12 20:00:00 14.5 4 Nordeste 9 Nordeste 0 -- -- 88
2018-11-12 19:00:00 14.8 5 Nordeste 11 Este 0 -- -- 87
2018-11-12 18:00:00 15 5 Este 13 Nordeste 0 -- -- 83
2018-11-12 17:00:00 15.9 7 Nordeste 17 Nordeste 0 -- -- 78
2018-11-12 16:00:00 16.6 9 Nordeste 17 Nordeste 0 -- -- 74
2018-11-12 15:00:00 16.7 9 Nordeste 18 Nordeste 0 -- -- 73
2018-11-12 14:00:00 17.2 6 Nordeste 19 Este 0 -- -- 69
2018-11-12 13:00:00 16.4 8 Nordeste 16 Este 0 -- -- 69
2018-11-12 12:00:00 15.5 7 Este 17 Este 0 -- -- 72
2018-11-12 11:00:00 14.7 5 Sudeste 9 Este 0 -- -- 75
2018-11-12 10:00:00 13.9 0 Calma 5 Sudoeste 0 -- -- 74
2018-11-12 09:00:00 11.2 3 Sudoeste 9 Sudoeste 0 -- -- 70
2018-11-12 08:00:00 9 3 Sudoeste 9 Sudoeste 0 -- -- 79
2018-11-12 07:00:00 9.8 6 Sudoeste 14 Sudoeste 0 -- -- 74
2018-11-12 06:00:00 10.3 6 Oeste 11 Sudoeste 0 -- -- 73
2018-11-12 05:00:00 10.1 2 Oeste 5 Noroeste 0 -- -- 73
2018-11-12 04:00:00 12 3 Noroeste 7 Este 0 -- -- 64
2018-11-12 03:00:00 15.5 3 Noroeste 28 Sudoeste 0 -- -- 51
2018-11-12 02:00:00 17.4 13 Sudoeste 27 Oeste 0 -- -- 44
2018-11-12 01:00:00 16.1 10 Sudoeste 19 Sudoeste 0 -- -- 46
2018-11-12 00:00:00 16.1 9 Sudoeste 24 Sudoeste 0 -- -- 45
2018-11-11 23:00:00 15.8 6 Sur 22 Sudoeste 0 -- -- 47
2018-11-11 22:00:00 16.5 7 Sudoeste 22 Sudoeste 0 -- -- 48
2018-11-11 21:00:00 16.2 6 Sudoeste 15 Sudoeste 0 -- -- 49
2018-11-11 20:00:00 17.2 7 Sudoeste 25 Sudoeste 0 -- -- 48
2018-11-11 19:00:00 17.3 9 Sur 24 Sudoeste 0 -- -- 50
2018-11-11 18:00:00 18.3 11 Sudoeste 25 Oeste 0 -- -- 45
2018-11-11 17:00:00 19.6 8 Sudoeste 27 Oeste 0 -- -- 45
2018-11-11 16:00:00 20.9 8 Sudoeste 25 Sur 0 -- -- 43
2018-11-11 15:00:00 21.2 9 Sur 24 Sur 0 -- -- 42
2018-11-11 14:00:00 21.4 8 Sur 29 Sudoeste 0 -- -- 44
2018-11-11 13:00:00 20.7 12 Sudeste 25 Sudeste 0 -- -- 49
2018-11-11 12:00:00 21 9 Sudoeste 22 Sudoeste 0 -- -- 51
2018-11-11 11:00:00 20 6 Sur 24 Sudoeste 0 -- -- 55
2018-11-11 10:00:00 18 10 Sudoeste 18 Oeste 0 -- -- 61
2018-11-11 09:00:00 13.8 7 Sudoeste 12 Sudoeste 0 -- -- 74
2018-11-11 08:00:00 12.5 6 Sudoeste 16 Sur 0 -- -- 77
2018-11-11 07:00:00 12 9 Sudoeste 15 Sur 0 -- -- 78
2018-11-11 06:00:00 12.9 8 Sur 17 Sur 0 -- -- 75
2018-11-11 05:00:00 13 7 Sur 16 Sudoeste 0 -- -- 75
2018-11-11 04:00:00 13.9 6 Sudoeste 19 Sudoeste 0 -- -- 71
2018-11-11 03:00:00 13.7 9 Sudoeste 20 Oeste 0 -- -- 71
2018-11-11 02:00:00 13.8 5 Sur 13 Sur 0 -- -- 71
2018-11-11 01:00:00 12.4 8 Sudoeste 19 Sudoeste 0 -- -- 72
2018-11-11 00:00:00 13.8 9 Sudoeste 20 Sur 0 -- -- 66
2018-11-10 23:00:00 13.7 8 Sur 28 Sudoeste 0 -- -- 65
2018-11-10 22:00:00 14.6 5 Sur 30 Sudoeste 0 -- -- 61
2018-11-10 21:00:00 15.4 12 Sudoeste 24 Sudoeste 0 -- -- 59
2018-11-10 20:00:00 15.7 11 Oeste 24 Sudoeste 0 -- -- 58
2018-11-10 19:00:00 15.8 9 Oeste 29 Oeste 0 -- -- 60
2018-11-10 18:00:00 16.2 10 Oeste 26 Sudoeste 0 -- -- 60
2018-11-10 17:00:00 16.4 12 Oeste 20 Oeste 0 -- -- 61
2018-11-10 16:00:00 15.8 7 Oeste 25 Sur 0 -- -- 61
2018-11-10 15:00:00 15.8 12 Sudoeste 27 Sudoeste 0 -- -- 60
2018-11-10 14:00:00 15.2 11 Sudoeste 30 Oeste 0 -- -- 62
2018-11-10 13:00:00 15.5 21 Sudoeste 33 Sudoeste 0 -- -- 60
2018-11-10 12:00:00 16.4 10 Oeste 24 Sudoeste 0 -- -- 57
2018-11-10 11:00:00 14.1 4 Sudoeste 16 Oeste 0 -- -- 65
2018-11-10 10:00:00 13.4 3 Este 27 Oeste 0 -- -- 66
2018-11-10 09:00:00 13.3 9 Sudeste 18 Sur 0 -- -- 66
2018-11-10 08:00:00 11.2 8 Sudoeste 19 Sur 0 -- -- 73
2018-11-10 07:00:00 11.4 11 Sudoeste 25 Sudeste 0 -- -- 72
2018-11-10 06:00:00 11.7 8 Sudoeste 19 Sudoeste 0 -- -- 70
2018-11-10 05:00:00 11.3 2 Sudoeste 20 Sur 0 -- -- 70
2018-11-10 04:00:00 11.5 4 Sudeste 37 Oeste 0 -- -- 67
2018-11-10 03:00:00 11.5 15 Oeste 40 Sudoeste 0 -- -- 65
2018-11-10 02:00:00 10.9 6 Sur 20 Oeste 0 -- -- 65
2018-11-10 01:00:00 10.9 5 Sudeste 33 Oeste 0 -- -- 63
2018-11-10 00:00:00 11.3 12 Sudoeste 47 Oeste 0 -- -- 60